Time;durP1;ratioP1;P1;durP2;ratioP2;P2;SDS_P1;SDS_P2;PMS_P1;PMS_P2;Temp;Humidity;BMP_temperature;BMP_pressure;BME280_temperature;BME280_humidity;BME280_pressure;Samples;Min_cycle;Max_cycle;Signal;HPM_P1;HPM_P2
2022/11/08 00:02:47;;;;;;;10.70;3.60;;;;;;;;;;1743480;82;26270;-67
2022/11/08 00:16:20;;;;;;;10.10;4.00;;;;;;;;;;1723561;82;26833;-67
2022/11/08 00:18:49;;;;;;;9.67;3.90;;;;;;;;;;1754195;79;26376;-67
2022/11/08 00:21:17;;;;;;;10.90;3.65;;;;;;;;;;1778199;80;26262;-66
2022/11/08 00:23:46;;;;;;;13.85;3.80;;;;;;;;;;1778399;80;26262;-66
2022/11/08 00:26:14;;;;;;;10.80;3.55;;;;;;;;;;1754439;80;26227;-66
2022/11/08 00:28:43;;;;;;;8.10;3.65;;;;;;;;;;1778194;80;26259;-67
2022/11/08 00:31:11;;;;;;;6.40;3.20;;;;;;;;;;1778146;80;26191;-67
2022/11/08 00:33:40;;;;;;;8.80;3.10;;;;;;;;;;1754501;80;26304;-67
2022/11/08 00:36:09;;;;;;;9.93;3.47;;;;;;;;;;1778396;80;26735;-66
2022/11/08 00:38:42;;;;;;;11.37;3.47;;;;;;;;;;1778368;80;26308;-67
2022/11/08 00:41:10;;;;;;;9.00;2.75;;;;;;;;;;1778182;80;26278;-66
2022/11/08 00:43:38;;;;;;;9.40;3.40;;;;;;;;;;1778382;80;26862;-67
2022/11/08 00:46:07;;;;;;;9.70;4.80;;;;;;;;;;1778552;80;26240;-67
2022/11/08 00:48:35;;;;;;;13.90;5.40;;;;;;;;;;1776844;80;26238;-67
2022/11/08 00:51:04;;;;;;;9.20;4.40;;;;;;;;;;1778376;80;26274;-67
2022/11/08 00:53:33;;;;;;;12.60;5.10;;;;;;;;;;1778054;80;26342;-67
2022/11/08 00:56:02;;;;;;;15.55;5.55;;;;;;;;;;1752070;80;26302;-67
2022/11/08 00:58:30;;;;;;;10.30;5.10;;;;;;;;;;1776483;80;26403;-67
2022/11/08 01:00:59;;;;;;;12.30;5.10;;;;;;;;;;1776321;80;26359;-67
2022/11/08 01:03:28;;;;;;;14.95;6.10;;;;;;;;;;1776298;80;26253;-67
2022/11/08 01:05:57;;;;;;;9.10;3.70;;;;;;;;;;1776178;80;26293;-67
2022/11/08 01:08:25;;;;;;;15.05;4.30;;;;;;;;;;1776559;80;26330;-67
2022/11/08 01:10:54;;;;;;;14.50;4.30;;;;;;;;;;1776349;80;26427;-67
2022/11/08 01:13:22;;;;;;;13.53;4.30;;;;;;;;;;1778501;80;26842;-67
2022/11/08 01:15:51;;;;;;;15.00;4.20;;;;;;;;;;1778155;80;26242;-67
2022/11/08 01:18:19;;;;;;;14.95;4.50;;;;;;;;;;1778134;78;26640;-67
2022/11/08 01:20:49;;;;;;;13.55;4.20;;;;;;;;;;1778183;80;26250;-67
2022/11/08 01:23:18;;;;;;;7.80;3.20;;;;;;;;;;1778240;80;26254;-67
2022/11/08 01:25:47;;;;;;;7.15;2.60;;;;;;;;;;1778282;80;26301;-67
2022/11/08 01:28:16;;;;;;;7.20;2.20;;;;;;;;;;1778297;80;26250;-67
2022/11/08 01:30:45;;;;;;;9.40;2.30;;;;;;;;;;1778051;80;26296;-67
2022/11/08 01:33:13;;;;;;;3.80;2.00;;;;;;;;;;1778209;80;26334;-67
2022/11/08 01:35:44;;;;;;;6.10;2.00;;;;;;;;;;1778164;80;26197;-67
2022/11/08 01:38:13;;;;;;;7.00;2.00;;;;;;;;;;1778185;80;26290;-67
2022/11/08 01:40:45;;;;;;;5.45;1.80;;;;;;;;;;1778321;80;27051;-67
2022/11/08 01:43:30;;;;;;;6.10;2.10;;;;;;;;;;1778222;80;26327;-67
2022/11/08 01:46:30;;;;;;;5.87;1.50;;;;;;;;;;1778219;80;26335;-67
2022/11/08 01:49:00;;;;;;;8.63;2.10;;;;;;;;;;1750336;82;26341;-67
2022/11/08 01:51:31;;;;;;;8.67;2.60;;;;;;;;;;1779906;80;27037;-67
2022/11/08 01:53:59;;;;;;;8.10;2.17;;;;;;;;;;1779955;80;26700;-67
2022/11/08 01:56:27;;;;;;;8.33;2.63;;;;;;;;;;1727834;82;26866;-68
2022/11/08 01:58:57;;;;;;;7.03;2.20;;;;;;;;;;1779810;80;26301;-67
2022/11/08 02:01:26;;;;;;;7.10;2.25;;;;;;;;;;1779728;80;26254;-67
2022/11/08 02:03:54;;;;;;;8.70;2.10;;;;;;;;;;1779857;80;26890;-67
2022/11/08 02:06:23;;;;;;;11.93;2.60;;;;;;;;;;1779916;80;26254;-67
2022/11/08 02:08:51;;;;;;;5.83;1.80;;;;;;;;;;1779864;80;26250;-67
2022/11/08 02:11:20;;;;;;;14.70;2.60;;;;;;;;;;1779969;80;26293;-67
2022/11/08 02:13:48;;;;;;;9.47;2.20;;;;;;;;;;1779814;80;26266;-67
2022/11/08 02:16:16;;;;;;;6.60;2.03;;;;;;;;;;1779604;80;26316;-67
2022/11/08 02:18:46;;;;;;;10.20;2.33;;;;;;;;;;1779750;79;26430;-66
2022/11/08 02:21:16;;;;;;;9.77;2.43;;;;;;;;;;1755765;80;26343;-66
2022/11/08 02:23:45;;;;;;;11.33;1.97;;;;;;;;;;1780047;80;27111;-67
2022/11/08 02:26:14;;;;;;;11.13;2.30;;;;;;;;;;1779972;80;26230;-66
2022/11/08 02:28:44;;;;;;;9.20;2.47;;;;;;;;;;1780056;80;26257;-66
2022/11/08 02:31:13;;;;;;;9.77;2.40;;;;;;;;;;1779862;80;26242;-67
2022/11/08 02:33:42;;;;;;;10.27;2.10;;;;;;;;;;1780176;80;26324;-67
2022/11/08 02:36:12;;;;;;;15.23;2.63;;;;;;;;;;1755559;80;26732;-67
2022/11/08 02:38:42;;;;;;;13.43;2.40;;;;;;;;;;1779781;80;26767;-67
2022/11/08 02:41:10;;;;;;;11.53;2.23;;;;;;;;;;1779939;80;26357;-67
2022/11/08 02:43:39;;;;;;;5.93;2.30;;;;;;;;;;1778435;80;27060;-67
2022/11/08 02:46:07;;;;;;;10.70;2.60;;;;;;;;;;1753443;80;26338;-67
2022/11/08 02:48:36;;;;;;;10.20;2.50;;;;;;;;;;1778259;80;26278;-66
2022/11/08 02:51:04;;;;;;;10.15;3.00;;;;;;;;;;1777940;80;26297;-66
2022/11/08 02:53:32;;;;;;;8.77;2.23;;;;;;;;;;1753983;80;26294;-66
2022/11/08 02:56:01;;;;;;;13.33;2.33;;;;;;;;;;1777788;80;26289;-67
2022/11/08 02:58:29;;;;;;;9.53;2.33;;;;;;;;;;1778248;80;26293;-66
2022/11/08 03:00:58;;;;;;;8.30;2.50;;;;;;;;;;1778057;80;26284;-67
2022/11/08 03:03:26;;;;;;;12.15;2.95;;;;;;;;;;1777978;80;26289;-67
2022/11/08 03:05:57;;;;;;;9.75;2.90;;;;;;;;;;1778284;80;26767;-66
2022/11/08 03:08:25;;;;;;;9.27;2.67;;;;;;;;;;1778221;80;26348;-67
2022/11/08 03:10:53;;;;;;;9.85;2.20;;;;;;;;;;1777832;80;27501;-67
2022/11/08 03:13:22;;;;;;;10.35;2.30;;;;;;;;;;1753903;80;26823;-67
2022/11/08 03:15:50;;;;;;;12.75;3.00;;;;;;;;;;1753557;80;26319;-67
2022/11/08 03:18:18;;;;;;;10.27;2.97;;;;;;;;;;1778009;80;26278;-67
2022/11/08 03:20:47;;;;;;;12.70;2.73;;;;;;;;;;1753646;80;26265;-67
2022/11/08 03:23:15;;;;;;;10.40;2.70;;;;;;;;;;1778292;80;26364;-66
2022/11/08 03:25:43;;;;;;;14.60;2.95;;;;;;;;;;1777823;80;26362;-67
2022/11/08 03:28:12;;;;;;;12.55;2.70;;;;;;;;;;1778485;80;26297;-67
2022/11/08 03:30:40;;;;;;;11.60;2.80;;;;;;;;;;1778172;80;26348;-67
2022/11/08 03:33:09;;;;;;;15.70;3.40;;;;;;;;;;1753693;80;26493;-67
2022/11/08 03:35:37;;;;;;;11.95;3.10;;;;;;;;;;1754036;80;27142;-67
2022/11/08 03:38:07;;;;;;;12.10;3.00;;;;;;;;;;1778190;80;26289;-67
2022/11/08 03:40:36;;;;;;;13.60;3.23;;;;;;;;;;1777720;80;26383;-67
2022/11/08 03:43:04;;;;;;;15.70;3.10;;;;;;;;;;1778407;80;26346;-67
2022/11/08 03:45:32;;;;;;;10.50;2.80;;;;;;;;;;1753366;80;26348;-67
2022/11/08 03:48:01;;;;;;;17.47;3.33;;;;;;;;;;1777974;80;26295;-67
2022/11/08 03:50:29;;;;;;;16.10;3.60;;;;;;;;;;1753790;80;26312;-67
2022/11/08 03:52:57;;;;;;;15.60;3.23;;;;;;;;;;1777945;80;26282;-67
2022/11/08 03:55:27;;;;;;;14.15;3.25;;;;;;;;;;1778022;80;26826;-67
2022/11/08 03:57:55;;;;;;;10.13;3.00;;;;;;;;;;1778024;80;26395;-67
2022/11/08 04:00:24;;;;;;;16.90;3.20;;;;;;;;;;1778112;80;26342;-67
2022/11/08 04:02:53;;;;;;;17.00;3.00;;;;;;;;;;1777850;80;26248;-67
2022/11/08 04:05:22;;;;;;;13.27;3.40;;;;;;;;;;1778141;80;26846;-66
2022/11/08 04:07:53;;;;;;;14.07;3.07;;;;;;;;;;1778240;80;26332;-68
2022/11/08 04:10:21;;;;;;;15.40;6.93;;;;;;;;;;1778231;80;26897;-67
2022/11/08 04:15:36;;;;;;;14.30;2.40;;;;;;;;;;1757311;80;26240;-67
2022/11/08 04:23:37;;;;;;;14.20;3.20;;;;;;;;;;1778418;80;26349;-67
2022/11/08 04:26:07;;;;;;;12.40;3.13;;;;;;;;;;1777936;80;26573;-66
2022/11/08 04:28:37;;;;;;;17.20;3.60;;;;;;;;;;1778105;80;26367;-66
2022/11/08 04:31:07;;;;;;;10.97;3.33;;;;;;;;;;1777928;80;26342;-66
2022/11/08 04:33:52;;;;;;;15.43;3.10;;;;;;;;;;1779869;80;26420;-67
2022/11/08 04:36:21;;;;;;;10.87;2.53;;;;;;;;;;1778545;80;26297;-71
2022/11/08 04:38:49;;;;;;;13.35;3.10;;;;;;;;;;1753167;80;26285;-71
2022/11/08 04:41:19;;;;;;;12.90;3.27;;;;;;;;;;1753263;80;26337;-71
2022/11/08 04:43:49;;;;;;;15.80;2.80;;;;;;;;;;1778018;80;26840;-71
2022/11/08 04:46:19;;;;;;;14.17;3.13;;;;;;;;;;1777809;80;26310;-71
2022/11/08 04:48:47;;;;;;;16.10;3.47;;;;;;;;;;1777793;80;26306;-71
2022/11/08 04:51:16;;;;;;;11.43;3.20;;;;;;;;;;1753546;80;26345;-71
2022/11/08 04:53:45;;;;;;;15.55;3.40;;;;;;;;;;1780040;80;26278;-71
2022/11/08 04:56:15;;;;;;;11.95;3.20;;;;;;;;;;1779707;80;26250;-71
2022/11/08 04:58:44;;;;;;;15.07;3.00;;;;;;;;;;1778780;80;26296;-71
2022/11/08 05:01:14;;;;;;;13.30;3.00;;;;;;;;;;1732340;82;611023;-71
2022/11/08 05:03:42;;;;;;;18.40;3.83;;;;;;;;;;1748448;82;26325;-71
2022/11/08 05:06:11;;;;;;;14.15;2.95;;;;;;;;;;1750255;82;26305;-71
2022/11/08 05:08:39;;;;;;;15.73;3.30;;;;;;;;;;1750140;82;26273;-70
2022/11/08 05:11:08;;;;;;;12.10;3.30;;;;;;;;;;1750202;82;26854;-71
2022/11/08 05:13:37;;;;;;;13.90;3.30;;;;;;;;;;1749957;82;26264;-71
2022/11/08 05:16:07;;;;;;;10.05;2.60;;;;;;;;;;1750323;82;26219;-71
2022/11/08 05:18:35;;;;;;;10.40;2.70;;;;;;;;;;1750320;82;27028;-71
2022/11/08 05:23:51;;;;;;;11.07;2.90;;;;;;;;;;1724963;82;26317;-71
2022/11/08 05:26:19;;;;;;;10.30;2.65;;;;;;;;;;1748479;82;24307;-71
2022/11/08 05:28:48;;;;;;;11.03;2.67;;;;;;;;;;1748370;82;24304;-71
2022/11/08 05:31:16;;;;;;;8.25;2.50;;;;;;;;;;1717492;82;26304;-71
2022/11/08 05:33:45;;;;;;;4.67;1.50;;;;;;;;;;1748490;82;26316;-71
2022/11/08 05:36:14;;;;;;;5.85;1.55;;;;;;;;;;1748363;82;24754;-71
2022/11/08 05:38:42;;;;;;;4.07;1.57;;;;;;;;;;1748473;82;27377;-71
2022/11/08 05:41:11;;;;;;;6.30;2.00;;;;;;;;;;1748623;82;27497;-71
2022/11/08 05:43:42;;;;;;;10.10;2.40;;;;;;;;;;1748691;82;26317;-71
2022/11/08 05:46:11;;;;;;;13.70;3.50;;;;;;;;;;1726387;82;26755;-71
2022/11/08 05:48:41;;;;;;;12.37;3.67;;;;;;;;;;1750097;82;26331;-71
2022/11/08 05:51:10;;;;;;;16.53;3.80;;;;;;;;;;1750072;82;27165;-71
2022/11/08 05:53:39;;;;;;;13.93;3.83;;;;;;;;;;1749940;82;26722;-71
2022/11/08 05:56:07;;;;;;;19.80;4.17;;;;;;;;;;1749912;82;26265;-71
2022/11/08 05:58:36;;;;;;;20.63;5.00;;;;;;;;;;1750190;82;26309;-71
2022/11/08 06:01:05;;;;;;;15.03;4.33;;;;;;;;;;1726733;82;26249;-71
2022/11/08 06:03:33;;;;;;;16.43;4.30;;;;;;;;;;1750137;82;26257;-71
2022/11/08 06:06:02;;;;;;;18.63;3.83;;;;;;;;;;1750302;82;26250;-71
2022/11/08 06:08:31;;;;;;;24.63;4.77;;;;;;;;;;1750398;82;26761;-70
2022/11/08 06:11:03;;;;;;;19.73;4.60;;;;;;;;;;1726754;82;26261;-71
2022/11/08 06:13:32;;;;;;;16.77;3.97;;;;;;;;;;1749189;82;26300;-70
2022/11/08 06:16:01;;;;;;;17.03;3.83;;;;;;;;;;1748730;82;26360;-71
2022/11/08 06:18:29;;;;;;;14.30;3.73;;;;;;;;;;1748945;82;26692;-71
2022/11/08 06:20:58;;;;;;;16.40;4.33;;;;;;;;;;1748277;80;26360;-70
2022/11/08 06:23:27;;;;;;;17.60;4.05;;;;;;;;;;1748777;82;26325;-71
2022/11/08 06:25:55;;;;;;;19.43;4.77;;;;;;;;;;1748428;82;26876;-70
2022/11/08 06:28:23;;;;;;;19.83;4.03;;;;;;;;;;1724385;82;26324;-71
2022/11/08 06:30:52;;;;;;;20.03;4.53;;;;;;;;;;1748544;82;24235;-70
2022/11/08 06:33:20;;;;;;;19.00;4.50;;;;;;;;;;1748182;82;24246;-71
2022/11/08 06:35:49;;;;;;;19.40;4.55;;;;;;;;;;1748230;82;24333;-70
2022/11/08 06:38:17;;;;;;;17.23;5.37;;;;;;;;;;1748306;82;27449;-71
2022/11/08 06:40:45;;;;;;;28.40;5.95;;;;;;;;;;1748305;82;26754;-70
2022/11/08 06:43:14;;;;;;;26.87;5.83;;;;;;;;;;1748140;82;25863;-70
2022/11/08 06:45:43;;;;;;;20.67;4.67;;;;;;;;;;1724530;82;26898;-70
2022/11/08 06:48:11;;;;;;;31.30;6.20;;;;;;;;;;1748534;82;26527;-70
2022/11/08 06:50:41;;;;;;;21.40;5.07;;;;;;;;;;1748385;82;26363;-70
2022/11/08 06:53:10;;;;;;;32.50;5.63;;;;;;;;;;1748695;82;26313;-70
2022/11/08 06:55:39;;;;;;;30.63;6.37;;;;;;;;;;1748135;82;26313;-71
2022/11/08 06:58:07;;;;;;;31.27;6.47;;;;;;;;;;1724460;82;26333;-70
2022/11/08 07:00:36;;;;;;;30.93;6.37;;;;;;;;;;1748566;82;26312;-70
2022/11/08 07:03:04;;;;;;;28.27;6.17;;;;;;;;;;1724739;82;24263;-70
2022/11/08 07:05:35;;;;;;;27.97;5.67;;;;;;;;;;1748310;82;27411;-70
2022/11/08 07:08:04;;;;;;;27.17;5.67;;;;;;;;;;1748352;82;24238;-69
2022/11/08 07:10:33;;;;;;;22.70;5.30;;;;;;;;;;1749407;82;26300;-70
2022/11/08 07:13:02;;;;;;;30.17;6.70;;;;;;;;;;1724717;82;26740;-70
2022/11/08 07:15:32;;;;;;;24.45;5.85;;;;;;;;;;1750247;82;26285;-70
2022/11/08 07:18:01;;;;;;;27.20;5.83;;;;;;;;;;1726773;82;26269;-70
2022/11/08 07:20:29;;;;;;;32.03;6.60;;;;;;;;;;1750004;82;26357;-70
2022/11/08 07:22:58;;;;;;;28.55;6.30;;;;;;;;;;1719899;82;26257;-70
2022/11/08 07:25:27;;;;;;;27.17;6.50;;;;;;;;;;1750253;82;26367;-70
2022/11/08 07:27:56;;;;;;;34.17;6.33;;;;;;;;;;1750204;82;26254;-70
2022/11/08 07:30:24;;;;;;;30.73;6.40;;;;;;;;;;1750077;82;26297;-70
2022/11/08 07:32:54;;;;;;;25.93;6.60;;;;;;;;;;1750427;82;26245;-70
2022/11/08 07:35:23;;;;;;;23.00;6.07;;;;;;;;;;1750062;82;26273;-70
2022/11/08 07:37:51;;;;;;;28.90;6.47;;;;;;;;;;1750055;82;26537;-70
2022/11/08 07:40:19;;;;;;;28.10;6.90;;;;;;;;;;1749224;82;26300;-70
2022/11/08 07:42:48;;;;;;;24.45;6.60;;;;;;;;;;1724708;82;26344;-70
2022/11/08 07:45:17;;;;;;;26.50;6.25;;;;;;;;;;1748468;82;26531;-70
2022/11/08 07:47:46;;;;;;;32.20;7.60;;;;;;;;;;1748688;82;26358;-71
2022/11/08 07:50:13;;;;;;;;;;;;;;;;;;1690041;83;26545;-70
2022/11/08 07:52:41;;;;;;;19.80;4.50;;;;;;;;;;1720891;83;26319;-70
2022/11/08 07:55:10;;;;;;;15.17;4.07;;;;;;;;;;1696858;83;26289;-70
2022/11/08 07:57:38;;;;;;;14.30;4.40;;;;;;;;;;1714808;83;26276;-70
2022/11/08 08:00:09;;;;;;;14.80;3.60;;;;;;;;;;1748236;82;26273;-70
2022/11/08 08:02:37;;;;;;;13.10;3.30;;;;;;;;;;1747065;82;26327;-69
2022/11/08 08:05:06;;;;;;;10.70;2.65;;;;;;;;;;1746665;82;26363;-69
2022/11/08 08:07:35;;;;;;;8.40;2.67;;;;;;;;;;1746681;82;26304;-69
2022/11/08 08:10:03;;;;;;;12.10;3.60;;;;;;;;;;1746982;82;26289;-69
2022/11/08 08:12:32;;;;;;;9.80;3.03;;;;;;;;;;1716285;82;26376;-69
2022/11/08 08:15:00;;;;;;;8.37;2.50;;;;;;;;;;1723220;82;26389;-69
2022/11/08 08:17:28;;;;;;;6.73;2.87;;;;;;;;;;1746560;82;26328;-69
2022/11/08 08:19:57;;;;;;;9.63;2.80;;;;;;;;;;1723032;82;26321;-71
2022/11/08 08:22:25;;;;;;;11.73;2.70;;;;;;;;;;1746905;80;26357;-70
2022/11/08 08:24:54;;;;;;;8.75;2.60;;;;;;;;;;1746890;82;26305;-71
2022/11/08 08:27:22;;;;;;;11.60;2.80;;;;;;;;;;1746517;82;26301;-70
2022/11/08 08:29:50;;;;;;;8.40;3.20;;;;;;;;;;1723481;82;26654;-70
2022/11/08 08:32:19;;;;;;;10.05;3.10;;;;;;;;;;1723204;82;26692;-70
2022/11/08 08:34:47;;;;;;;9.67;2.90;;;;;;;;;;1720116;83;26319;-70
2022/11/08 08:37:16;;;;;;;8.30;2.57;;;;;;;;;;1724793;82;26359;-70
2022/11/08 08:39:45;;;;;;;10.15;2.80;;;;;;;;;;1748323;82;26305;-71
2022/11/08 08:42:13;;;;;;;8.73;2.90;;;;;;;;;;1725060;82;26329;-71
2022/11/08 08:44:42;;;;;;;10.20;3.37;;;;;;;;;;1726447;82;26289;-71
2022/11/08 08:47:10;;;;;;;9.90;3.47;;;;;;;;;;1750002;82;26335;-71
2022/11/08 08:49:39;;;;;;;13.30;3.80;;;;;;;;;;1750267;82;26276;-70
2022/11/08 08:52:08;;;;;;;13.33;4.03;;;;;;;;;;1750149;82;26257;-71
2022/11/08 08:54:36;;;;;;;14.77;4.13;;;;;;;;;;1726746;82;26269;-71
2022/11/08 08:57:05;;;;;;;19.15;4.40;;;;;;;;;;1750091;82;26715;-69
2022/11/08 08:59:34;;;;;;;13.15;3.80;;;;;;;;;;1727016;82;26262;-70
2022/11/08 09:02:02;;;;;;;15.50;4.00;;;;;;;;;;1750261;82;26216;-70
2022/11/08 09:04:31;;;;;;;16.50;5.10;;;;;;;;;;1750335;82;27086;-69
2022/11/08 09:06:59;;;;;;;20.00;4.47;;;;;;;;;;1726810;82;24208;-70
2022/11/08 09:09:29;;;;;;;14.45;4.85;;;;;;;;;;1750329;82;26359;-71
2022/11/08 09:11:57;;;;;;;15.87;4.17;;;;;;;;;;1726833;82;26758;-70
2022/11/08 09:14:25;;;;;;;16.90;4.60;;;;;;;;;;1750013;82;26276;-71
2022/11/08 09:16:54;;;;;;;20.23;4.43;;;;;;;;;;1750004;82;26842;-71
2022/11/08 09:19:22;;;;;;;15.15;3.40;;;;;;;;;;1750076;82;26268;-71
2022/11/08 09:21:50;;;;;;;12.37;3.83;;;;;;;;;;1749892;80;26320;-71
2022/11/08 09:24:19;;;;;;;11.70;4.07;;;;;;;;;;1726830;82;26265;-70
2022/11/08 09:26:47;;;;;;;13.57;4.37;;;;;;;;;;1750051;82;26265;-71
2022/11/08 09:29:15;;;;;;;12.77;3.93;;;;;;;;;;1726783;82;26262;-71
2022/11/08 09:31:44;;;;;;;11.70;3.30;;;;;;;;;;1726839;82;26269;-71
2022/11/08 09:34:13;;;;;;;15.73;4.27;;;;;;;;;;1750101;82;26779;-71
2022/11/08 09:36:41;;;;;;;17.67;4.47;;;;;;;;;;1750070;82;24211;-71
2022/11/08 09:39:09;;;;;;;16.35;4.50;;;;;;;;;;1750138;82;26261;-71
2022/11/08 09:41:48;;;;;;;15.37;4.40;;;;;;;;;;1704678;82;26859;-71
2022/11/08 09:44:20;;;;;;;11.23;4.00;;;;;;;;;;1750214;82;26261;-71
2022/11/08 09:46:50;;;;;;;19.00;4.30;;;;;;;;;;1750052;82;26819;-71
2022/11/08 09:49:21;;;;;;;14.27;4.63;;;;;;;;;;1750248;82;26751;-71
2022/11/08 09:51:51;;;;;;;15.87;4.50;;;;;;;;;;1720124;82;26294;-71
2022/11/08 09:54:22;;;;;;;13.27;4.07;;;;;;;;;;1748927;82;26301;-72
2022/11/08 09:56:51;;;;;;;18.17;5.70;;;;;;;;;;1747880;82;26384;-72
2022/11/08 09:59:30;;;;;;;18.45;5.70;;;;;;;;;;1750202;82;26265;-72
2022/11/08 10:01:58;;;;;;;22.40;5.55;;;;;;;;;;1749444;82;26344;-72
2022/11/08 10:04:28;;;;;;;12.60;5.10;;;;;;;;;;1724449;82;27424;-72
2022/11/08 10:07:04;;;;;;;16.17;5.47;;;;;;;;;;1747912;82;26279;-72
2022/11/08 10:09:37;;;;;;;19.25;5.50;;;;;;;;;;1748584;82;26396;-73
2022/11/08 10:12:12;;;;;;;15.80;4.90;;;;;;;;;;1747705;81;26300;-72
2022/11/08 10:14:44;;;;;;;19.50;5.20;;;;;;;;;;1748658;82;26387;-72
2022/11/08 10:17:16;;;;;;;21.60;5.43;;;;;;;;;;1748297;82;26808;-71
2022/11/08 10:19:51;;;;;;;15.97;4.90;;;;;;;;;;1747555;82;26602;-72
2022/11/08 10:22:21;;;;;;;20.93;5.50;;;;;;;;;;1747396;80;24362;-71
2022/11/08 10:24:52;;;;;;;24.63;5.53;;;;;;;;;;1748240;82;26320;-71
2022/11/08 10:27:23;;;;;;;22.40;5.37;;;;;;;;;;1724262;82;26384;-71
2022/11/08 10:29:53;;;;;;;20.70;5.50;;;;;;;;;;1747984;81;26312;-73
2022/11/08 10:32:22;;;;;;;18.73;4.80;;;;;;;;;;1748457;82;26285;-73
2022/11/08 10:34:52;;;;;;;19.30;5.00;;;;;;;;;;1750160;82;26280;-71
2022/11/08 10:37:21;;;;;;;14.35;4.65;;;;;;;;;;1750238;82;26409;-73
2022/11/08 10:39:53;;;;;;;14.30;4.40;;;;;;;;;;1749980;82;26328;-73
2022/11/08 10:42:22;;;;;;;11.87;3.73;;;;;;;;;;1750205;82;26301;-71
2022/11/08 10:44:51;;;;;;;10.73;4.10;;;;;;;;;;1749902;82;26274;-73
2022/11/08 10:47:22;;;;;;;16.00;4.23;;;;;;;;;;1749397;82;26294;-73
2022/11/08 10:49:53;;;;;;;17.47;4.90;;;;;;;;;;1748431;82;26359;-71
2022/11/08 10:52:22;;;;;;;16.47;4.57;;;;;;;;;;1748471;82;26301;-72
2022/11/08 10:54:53;;;;;;;16.13;4.80;;;;;;;;;;1748344;82;26302;-72
2022/11/08 10:57:24;;;;;;;16.25;4.25;;;;;;;;;;1748040;82;26313;-72
2022/11/08 10:59:52;;;;;;;17.90;5.25;;;;;;;;;;1750295;82;26266;-73
2022/11/08 11:02:26;;;;;;;20.23;5.57;;;;;;;;;;1749848;82;26269;-71
2022/11/08 11:04:56;;;;;;;17.13;5.27;;;;;;;;;;1725925;82;26379;-71
2022/11/08 11:07:30;;;;;;;21.10;6.07;;;;;;;;;;1746570;82;26268;-71
2022/11/08 11:09:59;;;;;;;14.90;4.87;;;;;;;;;;1750023;82;26259;-72
2022/11/08 11:12:27;;;;;;;19.70;4.95;;;;;;;;;;1749951;82;26256;-71
2022/11/08 11:14:58;;;;;;;17.90;4.90;;;;;;;;;;1726961;82;26364;-72
2022/11/08 11:17:30;;;;;;;15.03;5.13;;;;;;;;;;1749275;82;26290;-72
2022/11/08 11:19:59;;;;;;;15.60;5.10;;;;;;;;;;1748606;82;26322;-72
2022/11/08 11:22:29;;;;;;;13.93;4.13;;;;;;;;;;1748137;82;27538;-72
2022/11/08 11:24:59;;;;;;;15.50;4.63;;;;;;;;;;1748351;82;26311;-72
2022/11/08 11:27:30;;;;;;;21.47;5.53;;;;;;;;;;1748074;82;26375;-72
2022/11/08 11:30:14;;;;;;;20.83;5.27;;;;;;;;;;1750200;82;26521;-71
2022/11/08 11:32:45;;;;;;;12.90;4.40;;;;;;;;;;1749588;82;26805;-72
2022/11/08 11:35:15;;;;;;;17.67;4.70;;;;;;;;;;1748900;82;26502;-70
2022/11/08 11:37:44;;;;;;;18.97;5.10;;;;;;;;;;1748932;82;26268;-71
2022/11/08 11:40:19;;;;;;;15.53;5.13;;;;;;;;;;1748430;82;26415;-72
2022/11/08 11:42:49;;;;;;;19.43;5.10;;;;;;;;;;1749894;82;26387;-71
2022/11/08 11:45:20;;;;;;;14.40;4.67;;;;;;;;;;1749768;82;26774;-72
2022/11/08 11:47:51;;;;;;;15.60;5.07;;;;;;;;;;1750099;82;26353;-72
2022/11/08 11:50:23;;;;;;;21.13;5.03;;;;;;;;;;1750028;82;26274;-72
2022/11/08 11:52:51;;;;;;;14.77;4.27;;;;;;;;;;1750026;82;26337;-72
2022/11/08 11:55:21;;;;;;;13.45;4.20;;;;;;;;;;1726799;82;26746;-72
2022/11/08 11:57:54;;;;;;;15.67;4.67;;;;;;;;;;1750180;82;26426;-72
2022/11/08 12:00:22;;;;;;;14.07;4.50;;;;;;;;;;1750133;82;26275;-72
2022/11/08 12:02:57;;;;;;;17.97;4.53;;;;;;;;;;1704680;82;27127;-72
2022/11/08 12:05:31;;;;;;;16.20;4.57;;;;;;;;;;1750117;82;26336;-72
2022/11/08 12:08:04;;;;;;;16.67;4.33;;;;;;;;;;1726579;82;27022;-72
2022/11/08 12:10:35;;;;;;;12.13;4.17;;;;;;;;;;1750174;82;26261;-72
2022/11/08 12:13:05;;;;;;;15.13;4.53;;;;;;;;;;1750158;82;26734;-72
2022/11/08 12:15:36;;;;;;;12.40;3.63;;;;;;;;;;1749540;81;26728;-72
2022/11/08 12:18:15;;;;;;;19.23;5.23;;;;;;;;;;1749961;82;26832;-72
2022/11/08 12:20:46;;;;;;;12.80;4.00;;;;;;;;;;1750256;82;26255;-72
2022/11/08 12:23:20;;;;;;;13.53;4.47;;;;;;;;;;1750069;80;26360;-72
2022/11/08 12:25:50;;;;;;;17.40;4.30;;;;;;;;;;1749648;82;24179;-72
2022/11/08 12:28:23;;;;;;;17.10;4.50;;;;;;;;;;1750070;82;26834;-72
2022/11/08 12:30:54;;;;;;;11.40;4.27;;;;;;;;;;1748577;82;26357;-72
2022/11/08 12:33:25;;;;;;;16.50;4.30;;;;;;;;;;1748499;82;26799;-71
2022/11/08 12:36:00;;;;;;;18.97;5.20;;;;;;;;;;1748490;82;26851;-71
2022/11/08 12:38:30;;;;;;;12.75;4.80;;;;;;;;;;1748440;82;27388;-71
2022/11/08 12:41:01;;;;;;;13.50;4.57;;;;;;;;;;1748396;82;26346;-71
2022/11/08 12:43:33;;;;;;;14.47;5.00;;;;;;;;;;1747970;82;26312;-71
2022/11/08 12:46:04;;;;;;;14.33;4.30;;;;;;;;;;1747839;81;26952;-71
2022/11/08 12:48:41;;;;;;;11.00;4.35;;;;;;;;;;1748330;82;26319;-71
2022/11/08 12:51:11;;;;;;;12.67;3.83;;;;;;;;;;1712673;83;27409;-72
2022/11/08 12:53:51;;;;;;;8.75;3.45;;;;;;;;;;1746878;82;26782;-73
2022/11/08 12:56:21;;;;;;;9.93;3.30;;;;;;;;;;1745894;82;26309;-71
2022/11/08 12:58:50;;;;;;;6.40;2.83;;;;;;;;;;1746529;82;26363;-72
2022/11/08 13:01:19;;;;;;;6.97;2.50;;;;;;;;;;1746490;82;26297;-71
2022/11/08 13:03:55;;;;;;;6.95;2.60;;;;;;;;;;1746928;82;26422;-71
2022/11/08 13:06:25;;;;;;;6.80;2.80;;;;;;;;;;1746376;82;26267;-72
2022/11/08 13:08:55;;;;;;;6.80;2.80;;;;;;;;;;1746938;82;26293;-71
2022/11/08 13:11:25;;;;;;;4.80;2.30;;;;;;;;;;1746719;82;26372;-74
2022/11/08 13:13:55;;;;;;;4.65;2.50;;;;;;;;;;1720065;83;26323;-72
2022/11/08 13:16:25;;;;;;;6.60;2.80;;;;;;;;;;1725192;82;26420;-71
2022/11/08 13:18:54;;;;;;;4.20;2.20;;;;;;;;;;1725036;82;26308;-69
2022/11/08 13:21:39;;;;;;;6.00;2.50;;;;;;;;;;1749542;82;26286;-71
2022/11/08 13:24:45;;;;;;;4.03;2.20;;;;;;;;;;1749452;80;26590;-71
2022/11/08 13:30:36;;;;;;;5.45;4.00;;;;;;;;;;2041103;69;28284;-71
2022/11/08 13:33:08;;;;;;;6.80;3.80;;;;;;;;;;1972876;72;26883;-71
2022/11/08 13:35:39;;;;;;;6.40;4.30;;;;;;;;;;1968864;72;26253;-72
2022/11/08 13:38:10;;;;;;;10.63;7.07;;;;;;;;;;1971164;72;26671;-73
2022/11/08 13:40:43;;;;;;;12.65;8.00;;;;;;;;;;1963670;72;26203;-72
2022/11/08 13:43:21;;;;;;;9.93;6.47;;;;;;;;;;1935695;73;26289;-71
2022/11/08 13:45:50;;;;;;;7.67;3.50;;;;;;;;;;1935019;73;23207;-71
2022/11/08 13:48:43;;;;;;;8.50;3.17;;;;;;;;;;1935481;73;24246;-71
2022/11/08 13:51:25;;;;;;;7.63;5.83;;;;;;;;;;1930065;73;24252;-72
2022/11/08 13:53:56;;;;;;;5.73;2.80;;;;;;;;;;1936710;73;26195;-71
2022/11/08 13:56:46;;;;;;;9.20;3.03;;;;;;;;;;1933466;74;26650;-71
2022/11/08 13:59:52;;;;;;;6.43;2.90;;;;;;;;;;1936216;73;26753;-72
2022/11/08 14:02:30;;;;;;;7.37;2.97;;;;;;;;;;1937066;74;26227;-71
2022/11/08 14:05:09;;;;;;;13.27;3.97;;;;;;;;;;1935044;73;26231;-71
2022/11/08 14:07:39;;;;;;;9.20;3.43;;;;;;;;;;1936605;73;26180;-71
2022/11/08 14:10:09;;;;;;;11.77;3.97;;;;;;;;;;1932534;73;26266;-71
2022/11/08 14:12:39;;;;;;;13.77;4.13;;;;;;;;;;1934743;73;26275;-70
2022/11/08 14:15:10;;;;;;;12.30;4.27;;;;;;;;;;1931246;73;26325;-71
2022/11/08 14:17:40;;;;;;;11.67;4.30;;;;;;;;;;1931146;74;26802;-71
2022/11/08 14:20:17;;;;;;;7.93;3.20;;;;;;;;;;1930454;73;26260;-71
2022/11/08 14:22:46;;;;;;;9.83;3.20;;;;;;;;;;1932345;73;26803;-71
2022/11/08 14:25:16;;;;;;;8.30;3.20;;;;;;;;;;1835629;75;26252;-71
2022/11/08 14:27:45;;;;;;;9.13;3.20;;;;;;;;;;1855681;76;26887;-71
2022/11/08 14:30:15;;;;;;;14.70;3.80;;;;;;;;;;1860105;77;26326;-71
2022/11/08 14:32:44;;;;;;;9.50;3.53;;;;;;;;;;1869950;77;26195;-72
2022/11/08 14:35:14;;;;;;;9.30;3.50;;;;;;;;;;1868063;76;26675;-71
2022/11/08 14:37:43;;;;;;;8.17;3.03;;;;;;;;;;1936957;74;26168;-72
2022/11/08 14:40:19;;;;;;;9.23;3.27;;;;;;;;;;1936755;74;26187;-72
2022/11/08 14:42:48;;;;;;;10.70;4.93;;;;;;;;;;1936257;73;26293;-71
2022/11/08 14:45:18;;;;;;;5.73;3.37;;;;;;;;;;1934161;74;26711;-70
2022/11/08 14:47:48;;;;;;;6.17;2.67;;;;;;;;;;1936305;74;26274;-71
2022/11/08 14:50:18;;;;;;;10.20;3.77;;;;;;;;;;1933997;74;26297;-71
2022/11/08 14:52:48;;;;;;;13.50;3.37;;;;;;;;;;1934439;74;27359;-71
2022/11/08 14:55:18;;;;;;;10.00;4.40;;;;;;;;;;1934097;74;26348;-72
2022/11/08 14:57:46;;;;;;;11.10;3.53;;;;;;;;;;1912471;74;26220;-70
2022/11/08 15:00:19;;;;;;;11.63;4.03;;;;;;;;;;1936249;74;26188;-70
2022/11/08 15:02:48;;;;;;;16.03;4.07;;;;;;;;;;1934531;74;26809;-70
2022/11/08 15:05:29;;;;;;;16.17;4.83;;;;;;;;;;1934136;74;26530;-70
2022/11/08 15:07:58;;;;;;;14.37;4.73;;;;;;;;;;1934468;74;26239;-71
2022/11/08 15:10:27;;;;;;;17.00;4.53;;;;;;;;;;1935469;74;26231;-71
2022/11/08 15:12:55;;;;;;;16.90;4.80;;;;;;;;;;1934159;74;26246;-71
2022/11/08 15:15:25;;;;;;;12.40;3.83;;;;;;;;;;1934035;74;27344;-71
2022/11/08 15:18:06;;;;;;;13.63;4.20;;;;;;;;;;1936404;74;26257;-71